Senhora do Porto, Brazil
Current Conditions -  °F | °C
As of 12:00 PM on Saturday 22 Nov 2014 (Local Time) from SBLS Reporting Station
Broken Clouds Broken Clouds  
Wind Chill: 82°   Ceiling: 10000
Heat Index: 82°   Visibility: 6mi
Dew Point: 59°   Wind: 3mph
Humidity: 45%   Direction: 30°NNE
Pressure: 30.06"   Gusts: NA
Location:  18.89°S, 43.08°W
Report Text: SBLS 221400Z 03003KT 9999 FEW025 BKN100 28/15 Q1018
Loading
Personal Weather Stations






























Interactive Weather Map New forecast layout! Learn more

10-Day Weather Forecast

Advertisements
Track Severe Weather on mobile